sensor_id;sensor_type;location;lat;lon;timestamp;temperature;humidity
12827;DHT22;66927;48.812;9.118;2023-03-01T00:01:30;-2.20;99.90
12827;DHT22;66927;48.812;9.118;2023-03-01T00:03:56;-2.30;99.90
12827;DHT22;66927;48.812;9.118;2023-03-01T00:06:24;-2.20;99.90
12827;DHT22;66927;48.812;9.118;2023-03-01T00:08:50;-2.30;99.90
12827;DHT22;66927;48.812;9.118;2023-03-01T00:11:16;-2.30;99.90
12827;DHT22;66927;48.812;9.118;2023-03-01T00:13:44;-2.40;99.90
12827;DHT22;66927;48.812;9.118;2023-03-01T00:16:17;-2.40;99.90
12827;DHT22;66927;48.812;9.118;2023-03-01T00:18:43;-2.40;99.90
12827;DHT22;66927;48.812;9.118;2023-03-01T00:21:09;-2.30;99.90
12827;DHT22;66927;48.812;9.118;2023-03-01T00:23:36;-2.30;99.90
12827;DHT22;66927;48.812;9.118;2023-03-01T00:26:06;-2.50;99.90
12827;DHT22;66927;48.812;9.118;2023-03-01T00:28:31;-2.50;99.90
12827;DHT22;66927;48.812;9.118;2023-03-01T00:31:06;-2.40;99.90
12827;DHT22;66927;48.812;9.118;2023-03-01T00:33:32;-2.40;99.90
12827;DHT22;66927;48.812;9.118;2023-03-01T00:35:59;-2.40;99.90
12827;DHT22;66927;48.812;9.118;2023-03-01T00:38:25;-2.40;99.90
12827;DHT22;66927;48.812;9.118;2023-03-01T00:40:51;-2.40;99.90
12827;DHT22;66927;48.812;9.118;2023-03-01T00:43:17;-2.40;99.90
12827;DHT22;66927;48.812;9.118;2023-03-01T00:45:43;-2.40;99.90
12827;DHT22;66927;48.812;9.118;2023-03-01T00:48:08;-2.50;99.90
12827;DHT22;66927;48.812;9.118;2023-03-01T00:50:34;-2.50;99.90
12827;DHT22;66927;48.812;9.118;2023-03-01T00:53:00;-2.50;99.90
12827;DHT22;66927;48.812;9.118;2023-03-01T00:55:26;-2.30;99.90
12827;DHT22;66927;48.812;9.118;2023-03-01T00:57:52;-2.40;99.90
12827;DHT22;66927;48.812;9.118;2023-03-01T01:00:19;-2.60;99.90
12827;DHT22;66927;48.812;9.118;2023-03-01T01:02:45;-2.60;99.90
12827;DHT22;66927;48.812;9.118;2023-03-01T01:05:11;-2.60;99.90
12827;DHT22;66927;48.812;9.118;2023-03-01T01:07:37;-2.60;99.90
12827;DHT22;66927;48.812;9.118;2023-03-01T01:10:04;-2.70;99.90
12827;DHT22;66927;48.812;9.118;2023-03-01T01:12:30;-2.70;99.90
12827;DHT22;66927;48.812;9.118;2023-03-01T01:14:56;-2.70;99.90
12827;DHT22;66927;48.812;9.118;2023-03-01T01:17:22;-2.80;99.90
12827;DHT22;66927;48.812;9.118;2023-03-01T01:19:48;-2.80;99.90
12827;DHT22;66927;48.812;9.118;2023-03-01T01:22:14;-2.70;99.90
12827;DHT22;66927;48.812;9.118;2023-03-01T01:24:39;-2.80;99.90
12827;DHT22;66927;48.812;9.118;2023-03-01T01:27:05;-2.80;99.90
12827;DHT22;66927;48.812;9.118;2023-03-01T01:29:32;-2.90;99.90
12827;DHT22;66927;48.812;9.118;2023-03-01T01:31:58;-2.50;99.90
12827;DHT22;66927;48.812;9.118;2023-03-01T01:34:24;-2.70;99.90
12827;DHT22;66927;48.812;9.118;2023-03-01T01:36:51;-2.90;99.90
12827;DHT22;66927;48.812;9.118;2023-03-01T01:39:19;-3.00;99.90
12827;DHT22;66927;48.812;9.118;2023-03-01T01:41:44;-3.00;99.90
12827;DHT22;66927;48.812;9.118;2023-03-01T01:44:25;-3.00;99.90
12827;DHT22;66927;48.812;9.118;2023-03-01T01:47:03;-3.00;99.90
12827;DHT22;66927;48.812;9.118;2023-03-01T01:49:35;-2.90;99.90
12827;DHT22;66927;48.812;9.118;2023-03-01T01:54:44;-3.00;99.90
12827;DHT22;66927;48.812;9.118;2023-03-01T01:57:15;-3.00;99.90
12827;DHT22;66927;48.812;9.118;2023-03-01T01:59:45;-3.10;99.90
12827;DHT22;66927;48.812;9.118;2023-03-01T02:02:13;-3.00;99.90
12827;DHT22;66927;48.812;9.118;2023-03-01T02:04:41;-3.10;99.90
12827;DHT22;66927;48.812;9.118;2023-03-01T02:07:17;-3.00;99.90
12827;DHT22;66927;48.812;9.118;2023-03-01T02:09:47;-3.10;99.90
12827;DHT22;66927;48.812;9.118;2023-03-01T02:12:15;-3.10;99.90
12827;DHT22;66927;48.812;9.118;2023-03-01T02:14:42;-3.00;99.90
12827;DHT22;66927;48.812;9.118;2023-03-01T02:17:10;-2.80;99.90
12827;DHT22;66927;48.812;9.118;2023-03-01T02:20:10;-2.80;99.90
12827;DHT22;66927;48.812;9.118;2023-03-01T02:22:43;-2.70;99.90
12827;DHT22;66927;48.812;9.118;2023-03-01T02:25:21;-2.60;99.90
12827;DHT22;66927;48.812;9.118;2023-03-01T02:30:31;-2.40;99.90
12827;DHT22;66927;48.812;9.118;2023-03-01T02:33:00;-2.30;99.90
12827;DHT22;66927;48.812;9.118;2023-03-01T02:35:34;-2.10;99.90
12827;DHT22;66927;48.812;9.118;2023-03-01T02:38:01;-2.10;99.90
12827;DHT22;66927;48.812;9.118;2023-03-01T02:40:29;-2.10;99.90
12827;DHT22;66927;48.812;9.118;2023-03-01T02:42:57;-2.10;99.90
12827;DHT22;66927;48.812;9.118;2023-03-01T02:45:25;-2.00;99.90
12827;DHT22;66927;48.812;9.118;2023-03-01T02:47:54;-2.10;99.90
12827;DHT22;66927;48.812;9.118;2023-03-01T02:53:21;-2.00;99.90
12827;DHT22;66927;48.812;9.118;2023-03-01T02:55:48;-2.10;99.90
12827;DHT22;66927;48.812;9.118;2023-03-01T02:58:15;-2.10;99.90
12827;DHT22;66927;48.812;9.118;2023-03-01T03:00:42;-1.70;99.90
12827;DHT22;66927;48.812;9.118;2023-03-01T03:03:17;-1.90;99.90
12827;DHT22;66927;48.812;9.118;2023-03-01T03:05:44;-1.90;99.90
12827;DHT22;66927;48.812;9.118;2023-03-01T03:08:10;-1.80;99.90
12827;DHT22;66927;48.812;9.118;2023-03-01T03:10:39;-1.70;99.90
12827;DHT22;66927;48.812;9.118;2023-03-01T03:13:10;-1.70;99.90
12827;DHT22;66927;48.812;9.118;2023-03-01T03:15:37;-1.80;99.90
12827;DHT22;66927;48.812;9.118;2023-03-01T03:18:13;-1.60;99.90
12827;DHT22;66927;48.812;9.118;2023-03-01T03:20:40;-1.70;99.90
12827;DHT22;66927;48.812;9.118;2023-03-01T03:23:06;-1.50;99.90
12827;DHT22;66927;48.812;9.118;2023-03-01T03:25:32;-1.70;99.90
12827;DHT22;66927;48.812;9.118;2023-03-01T03:27:59;-1.80;99.90
12827;DHT22;66927;48.812;9.118;2023-03-01T03:30:30;-1.70;99.90
12827;DHT22;66927;48.812;9.118;2023-03-01T03:32:57;-1.70;99.90
12827;DHT22;66927;48.812;9.118;2023-03-01T03:35:30;-1.60;99.90
12827;DHT22;66927;48.812;9.118;2023-03-01T03:37:58;-1.60;99.90
12827;DHT22;66927;48.812;9.118;2023-03-01T03:40:36;-1.50;99.90
12827;DHT22;66927;48.812;9.118;2023-03-01T03:43:04;-1.50;99.90
12827;DHT22;66927;48.812;9.118;2023-03-01T03:45:31;-1.50;99.90
12827;DHT22;66927;48.812;9.118;2023-03-01T03:47:59;-1.50;99.90
12827;DHT22;66927;48.812;9.118;2023-03-01T03:50:25;-1.50;99.90
12827;DHT22;66927;48.812;9.118;2023-03-01T03:52:51;-1.50;99.90
12827;DHT22;66927;48.812;9.118;2023-03-01T03:55:17;-1.40;99.90
12827;DHT22;66927;48.812;9.118;2023-03-01T03:57:46;-1.40;99.90
12827;DHT22;66927;48.812;9.118;2023-03-01T04:00:19;-1.40;99.90
12827;DHT22;66927;48.812;9.118;2023-03-01T04:02:45;-1.30;99.90
12827;DHT22;66927;48.812;9.118;2023-03-01T04:05:14;-1.40;99.90
12827;DHT22;66927;48.812;9.118;2023-03-01T04:07:41;-1.40;99.90
12827;DHT22;66927;48.812;9.118;2023-03-01T04:10:10;-1.40;99.90
12827;DHT22;66927;48.812;9.118;2023-03-01T04:12:36;-1.40;99.90
12827;DHT22;66927;48.812;9.118;2023-03-01T04:15:04;-1.30;99.90
12827;DHT22;66927;48.812;9.118;2023-03-01T04:17:39;-1.40;99.90
12827;DHT22;66927;48.812;9.118;2023-03-01T04:20:05;-1.40;99.90
12827;DHT22;66927;48.812;9.118;2023-03-01T04:22:32;-1.30;99.90
12827;DHT22;66927;48.812;9.118;2023-03-01T04:24:59;-1.30;99.90
12827;DHT22;66927;48.812;9.118;2023-03-01T04:27:35;-1.30;99.90
12827;DHT22;66927;48.812;9.118;2023-03-01T04:30:04;-1.30;99.90
12827;DHT22;66927;48.812;9.118;2023-03-01T04:32:30;-1.30;99.90
12827;DHT22;66927;48.812;9.118;2023-03-01T04:34:57;-1.30;99.90
12827;DHT22;66927;48.812;9.118;2023-03-01T04:37:22;-1.30;99.90
12827;DHT22;66927;48.812;9.118;2023-03-01T04:39:49;-1.20;99.90
12827;DHT22;66927;48.812;9.118;2023-03-01T04:42:15;-1.20;99.90
12827;DHT22;66927;48.812;9.118;2023-03-01T04:44:42;-1.20;99.90
12827;DHT22;66927;48.812;9.118;2023-03-01T04:47:08;-1.20;99.90
12827;DHT22;66927;48.812;9.118;2023-03-01T04:49:36;-1.20;99.90
12827;DHT22;66927;48.812;9.118;2023-03-01T04:52:03;-1.20;99.90
12827;DHT22;66927;48.812;9.118;2023-03-01T04:54:34;-1.20;99.90
12827;DHT22;66927;48.812;9.118;2023-03-01T04:57:01;-1.10;99.90
12827;DHT22;66927;48.812;9.118;2023-03-01T04:59:27;-1.10;99.90
12827;DHT22;66927;48.812;9.118;2023-03-01T05:01:54;-1.20;99.90
12827;DHT22;66927;48.812;9.118;2023-03-01T05:04:23;-1.00;99.90
12827;DHT22;66927;48.812;9.118;2023-03-01T05:06:49;-1.00;99.90
12827;DHT22;66927;48.812;9.118;2023-03-01T05:09:15;-1.10;99.90
12827;DHT22;66927;48.812;9.118;2023-03-01T05:11:41;-1.00;99.90
12827;DHT22;66927;48.812;9.118;2023-03-01T05:14:08;-1.10;99.90
12827;DHT22;66927;48.812;9.118;2023-03-01T05:16:35;-1.00;99.90
12827;DHT22;66927;48.812;9.118;2023-03-01T05:19:02;-1.00;99.90
12827;DHT22;66927;48.812;9.118;2023-03-01T05:21:39;-1.00;99.90
12827;DHT22;66927;48.812;9.118;2023-03-01T05:24:24;-0.90;99.90
12827;DHT22;66927;48.812;9.118;2023-03-01T05:26:50;-0.90;99.90
12827;DHT22;66927;48.812;9.118;2023-03-01T05:29:18;-1.00;99.90
12827;DHT22;66927;48.812;9.118;2023-03-01T05:31:44;-0.90;99.90
12827;DHT22;66927;48.812;9.118;2023-03-01T05:34:10;-0.90;99.90
12827;DHT22;66927;48.812;9.118;2023-03-01T05:36:38;-0.90;99.90
12827;DHT22;66927;48.812;9.118;2023-03-01T05:39:04;-0.90;99.90
12827;DHT22;66927;48.812;9.118;2023-03-01T05:41:30;-0.80;99.90
12827;DHT22;66927;48.812;9.118;2023-03-01T05:43:55;-0.80;99.90
12827;DHT22;66927;48.812;9.118;2023-03-01T05:46:21;-0.90;99.90
12827;DHT22;66927;48.812;9.118;2023-03-01T05:48:49;-0.90;99.90
12827;DHT22;66927;48.812;9.118;2023-03-01T05:51:15;-0.80;99.90
12827;DHT22;66927;48.812;9.118;2023-03-01T05:53:41;-0.90;99.90
12827;DHT22;66927;48.812;9.118;2023-03-01T05:56:07;-0.90;99.90
12827;DHT22;66927;48.812;9.118;2023-03-01T05:58:33;-0.90;99.90
12827;DHT22;66927;48.812;9.118;2023-03-01T06:00:58;-0.80;99.90
12827;DHT22;66927;48.812;9.118;2023-03-01T06:03:24;-0.90;99.90
12827;DHT22;66927;48.812;9.118;2023-03-01T06:05:56;-0.80;99.90
12827;DHT22;66927;48.812;9.118;2023-03-01T06:08:21;-0.80;99.90
12827;DHT22;66927;48.812;9.118;2023-03-01T06:10:51;-0.80;99.90
12827;DHT22;66927;48.812;9.118;2023-03-01T06:13:23;-0.70;99.90
12827;DHT22;66927;48.812;9.118;2023-03-01T06:15:49;-0.70;99.90
12827;DHT22;66927;48.812;9.118;2023-03-01T06:18:15;-0.70;99.90
12827;DHT22;66927;48.812;9.118;2023-03-01T06:20:41;-0.60;99.90
12827;DHT22;66927;48.812;9.118;2023-03-01T06:23:06;-0.70;99.90
12827;DHT22;66927;48.812;9.118;2023-03-01T06:25:32;-0.70;99.90
12827;DHT22;66927;48.812;9.118;2023-03-01T06:27:58;-0.70;99.90
12827;DHT22;66927;48.812;9.118;2023-03-01T06:30:25;-0.60;99.90
12827;DHT22;66927;48.812;9.118;2023-03-01T06:32:52;-0.60;99.90
12827;DHT22;66927;48.812;9.118;2023-03-01T06:35:18;-0.60;99.90
12827;DHT22;66927;48.812;9.118;2023-03-01T06:37:45;-0.60;99.90
12827;DHT22;66927;48.812;9.118;2023-03-01T06:40:11;-0.60;99.90
12827;DHT22;66927;48.812;9.118;2023-03-01T06:42:40;-0.50;99.90
12827;DHT22;66927;48.812;9.118;2023-03-01T06:45:07;-0.70;99.90
12827;DHT22;66927;48.812;9.118;2023-03-01T06:47:33;-0.70;99.90
12827;DHT22;66927;48.812;9.118;2023-03-01T06:50:00;-0.70;99.90
12827;DHT22;66927;48.812;9.118;2023-03-01T06:52:26;-0.70;99.90
12827;DHT22;66927;48.812;9.118;2023-03-01T06:54:52;-0.50;99.90
12827;DHT22;66927;48.812;9.118;2023-03-01T06:57:19;-0.50;99.90
12827;DHT22;66927;48.812;9.118;2023-03-01T06:59:44;-0.50;99.90
12827;DHT22;66927;48.812;9.118;2023-03-01T07:02:12;-0.60;99.90
12827;DHT22;66927;48.812;9.118;2023-03-01T07:04:38;-0.60;99.90
12827;DHT22;66927;48.812;9.118;2023-03-01T07:07:04;-0.50;99.90
12827;DHT22;66927;48.812;9.118;2023-03-01T07:09:30;-0.40;99.90
12827;DHT22;66927;48.812;9.118;2023-03-01T07:11:56;-0.30;99.90
12827;DHT22;66927;48.812;9.118;2023-03-01T07:14:22;-0.40;99.90
12827;DHT22;66927;48.812;9.118;2023-03-01T07:16:50;-0.50;99.90
12827;DHT22;66927;48.812;9.118;2023-03-01T07:19:15;-0.40;99.90
12827;DHT22;66927;48.812;9.118;2023-03-01T07:21:41;-0.50;99.90
12827;DHT22;66927;48.812;9.118;2023-03-01T07:24:08;-0.50;99.90
12827;DHT22;66927;48.812;9.118;2023-03-01T07:26:34;-0.60;99.90
12827;DHT22;66927;48.812;9.118;2023-03-01T07:29:01;-0.70;99.90
12827;DHT22;66927;48.812;9.118;2023-03-01T07:31:26;-0.70;99.90
12827;DHT22;66927;48.812;9.118;2023-03-01T07:33:55;-0.70;99.90
12827;DHT22;66927;48.812;9.118;2023-03-01T07:36:21;-0.60;99.90
12827;DHT22;66927;48.812;9.118;2023-03-01T07:38:47;-0.60;99.90
12827;DHT22;66927;48.812;9.118;2023-03-01T07:41:13;-0.60;99.90
12827;DHT22;66927;48.812;9.118;2023-03-01T07:43:38;-0.60;99.90
12827;DHT22;66927;48.812;9.118;2023-03-01T07:46:04;-0.50;99.90
12827;DHT22;66927;48.812;9.118;2023-03-01T07:48:30;-0.50;99.90
12827;DHT22;66927;48.812;9.118;2023-03-01T07:51:01;-0.40;99.90
12827;DHT22;66927;48.812;9.118;2023-03-01T07:53:29;-0.40;99.90
12827;DHT22;66927;48.812;9.118;2023-03-01T07:56:12;-0.40;99.90
12827;DHT22;66927;48.812;9.118;2023-03-01T07:58:40;-0.30;99.90
12827;DHT22;66927;48.812;9.118;2023-03-01T08:01:08;-0.30;99.90
12827;DHT22;66927;48.812;9.118;2023-03-01T08:03:36;-0.20;99.90
12827;DHT22;66927;48.812;9.118;2023-03-01T08:06:03;-0.20;99.90
12827;DHT22;66927;48.812;9.118;2023-03-01T08:08:29;-0.10;99.90
12827;DHT22;66927;48.812;9.118;2023-03-01T08:10:59;0.00;99.90
12827;DHT22;66927;48.812;9.118;2023-03-01T08:13:26;0.20;99.90
12827;DHT22;66927;48.812;9.118;2023-03-01T08:15:52;0.30;99.90
12827;DHT22;66927;48.812;9.118;2023-03-01T08:18:19;0.50;99.90
12827;DHT22;66927;48.812;9.118;2023-03-01T08:20:46;0.60;99.90
12827;DHT22;66927;48.812;9.118;2023-03-01T08:23:12;0.70;99.90
12827;DHT22;66927;48.812;9.118;2023-03-01T08:25:38;0.70;99.90
12827;DHT22;66927;48.812;9.118;2023-03-01T08:28:05;0.80;99.90
12827;DHT22;66927;48.812;9.118;2023-03-01T08:30:31;1.00;99.90
12827;DHT22;66927;48.812;9.118;2023-03-01T08:32:57;1.10;99.90
12827;DHT22;66927;48.812;9.118;2023-03-01T08:35:22;1.30;99.90
12827;DHT22;66927;48.812;9.118;2023-03-01T08:37:48;1.40;99.90
12827;DHT22;66927;48.812;9.118;2023-03-01T08:40:14;1.50;99.90
12827;DHT22;66927;48.812;9.118;2023-03-01T08:42:41;1.60;99.90
12827;DHT22;66927;48.812;9.118;2023-03-01T08:45:09;1.80;99.90
12827;DHT22;66927;48.812;9.118;2023-03-01T08:47:35;1.90;99.90
12827;DHT22;66927;48.812;9.118;2023-03-01T08:50:00;2.20;99.90
12827;DHT22;66927;48.812;9.118;2023-03-01T08:52:26;2.40;99.90
12827;DHT22;66927;48.812;9.118;2023-03-01T08:54:53;2.60;99.90
12827;DHT22;66927;48.812;9.118;2023-03-01T08:57:18;2.80;99.90
12827;DHT22;66927;48.812;9.118;2023-03-01T08:59:44;2.90;99.90
12827;DHT22;66927;48.812;9.118;2023-03-01T09:02:14;3.20;99.90
12827;DHT22;66927;48.812;9.118;2023-03-01T09:04:40;3.30;99.90
12827;DHT22;66927;48.812;9.118;2023-03-01T09:07:08;3.50;99.90
12827;DHT22;66927;48.812;9.118;2023-03-01T09:09:34;3.70;99.90
12827;DHT22;66927;48.812;9.118;2023-03-01T09:12:00;3.80;99.90
12827;DHT22;66927;48.812;9.118;2023-03-01T09:14:26;4.00;99.90
12827;DHT22;66927;48.812;9.118;2023-03-01T09:16:52;4.20;99.90
12827;DHT22;66927;48.812;9.118;2023-03-01T09:19:17;4.30;99.90
12827;DHT22;66927;48.812;9.118;2023-03-01T09:21:43;4.20;99.90
12827;DHT22;66927;48.812;9.118;2023-03-01T09:24:27;4.30;99.90
12827;DHT22;66927;48.812;9.118;2023-03-01T09:26:54;4.40;99.90
12827;DHT22;66927;48.812;9.118;2023-03-01T09:29:21;4.60;99.90
12827;DHT22;66927;48.812;9.118;2023-03-01T09:31:46;4.50;99.90
12827;DHT22;66927;48.812;9.118;2023-03-01T09:34:12;4.80;99.90
12827;DHT22;66927;48.812;9.118;2023-03-01T09:36:41;5.00;99.90
12827;DHT22;66927;48.812;9.118;2023-03-01T09:39:07;5.20;99.90
12827;DHT22;66927;48.812;9.118;2023-03-01T09:44:36;5.50;99.80
12827;DHT22;66927;48.812;9.118;2023-03-01T09:47:04;5.70;99.00
12827;DHT22;66927;48.812;9.118;2023-03-01T09:49:32;5.80;99.20
12827;DHT22;66927;48.812;9.118;2023-03-01T09:54:49;5.90;98.50
12827;DHT22;66927;48.812;9.118;2023-03-01T09:57:41;6.10;98.00
12827;DHT22;66927;48.812;9.118;2023-03-01T10:03:16;6.10;97.20
12827;DHT22;66927;48.812;9.118;2023-03-01T10:08:32;6.30;97.20
12827;DHT22;66927;48.812;9.118;2023-03-01T10:11:05;6.40;97.00
12827;DHT22;66927;48.812;9.118;2023-03-01T10:13:54;6.40;96.20
12827;DHT22;66927;48.812;9.118;2023-03-01T10:16:46;6.50;96.40
12827;DHT22;66927;48.812;9.118;2023-03-01T10:19:46;6.90;96.40
12827;DHT22;66927;48.812;9.118;2023-03-01T10:22:25;7.30;95.80
12827;DHT22;66927;48.812;9.118;2023-03-01T10:24:54;7.70;95.90
12827;DHT22;66927;48.812;9.118;2023-03-01T10:27:24;8.00;94.70
12827;DHT22;66927;48.812;9.118;2023-03-01T10:32:19;8.80;94.00
12827;DHT22;66927;48.812;9.118;2023-03-01T10:34:51;9.50;93.00
12827;DHT22;66927;48.812;9.118;2023-03-01T10:37:19;10.20;91.20
12827;DHT22;66927;48.812;9.118;2023-03-01T10:40:07;10.80;90.80
12827;DHT22;66927;48.812;9.118;2023-03-01T10:42:37;11.60;86.00
12827;DHT22;66927;48.812;9.118;2023-03-01T10:45:42;12.30;84.60
12827;DHT22;66927;48.812;9.118;2023-03-01T10:48:16;12.80;82.10
12827;DHT22;66927;48.812;9.118;2023-03-01T10:50:46;13.10;79.10
12827;DHT22;66927;48.812;9.118;2023-03-01T10:53:32;13.70;76.70
12827;DHT22;66927;48.812;9.118;2023-03-01T10:56:05;14.60;73.40
12827;DHT22;66927;48.812;9.118;2023-03-01T10:58:32;15.90;67.50
12827;DHT22;66927;48.812;9.118;2023-03-01T11:01:23;17.30;64.40
12827;DHT22;66927;48.812;9.118;2023-03-01T11:06:30;21.30;52.50
12827;DHT22;66927;48.812;9.118;2023-03-01T11:08:56;22.80;48.20
12827;DHT22;66927;48.812;9.118;2023-03-01T11:11:35;23.70;46.20
12827;DHT22;66927;48.812;9.118;2023-03-01T11:16:38;27.10;41.50
12827;DHT22;66927;48.812;9.118;2023-03-01T11:19:16;28.20;38.90
12827;DHT22;66927;48.812;9.118;2023-03-01T11:24:27;29.50;35.60
12827;DHT22;66927;48.812;9.118;2023-03-01T11:26:55;28.70;35.70
12827;DHT22;66927;48.812;9.118;2023-03-01T11:29:44;29.10;35.50
12827;DHT22;66927;48.812;9.118;2023-03-01T11:32:13;29.30;34.70
12827;DHT22;66927;48.812;9.118;2023-03-01T11:34:56;30.40;33.60
12827;DHT22;66927;48.812;9.118;2023-03-01T11:37:52;29.80;34.20
12827;DHT22;66927;48.812;9.118;2023-03-01T11:40:51;28.70;34.80
12827;DHT22;66927;48.812;9.118;2023-03-01T11:44:00;30.00;33.40
12827;DHT22;66927;48.812;9.118;2023-03-01T12:03:28;32.80;30.60
12827;DHT22;66927;48.812;9.118;2023-03-01T12:08:47;32.30;30.80
12827;DHT22;66927;48.812;9.118;2023-03-01T12:17:19;31.90;30.60
12827;DHT22;66927;48.812;9.118;2023-03-01T12:20:14;29.10;32.40
12827;DHT22;66927;48.812;9.118;2023-03-01T12:25:41;30.60;31.80
12827;DHT22;66927;48.812;9.118;2023-03-01T12:50:40;34.50;29.30
12827;DHT22;66927;48.812;9.118;2023-03-01T12:55:44;34.60;29.10
12827;DHT22;66927;48.812;9.118;2023-03-01T12:58:32;34.80;29.00
12827;DHT22;66927;48.812;9.118;2023-03-01T13:10:04;35.70;28.50
12827;DHT22;66927;48.812;9.118;2023-03-01T13:20:29;36.20;28.30
12827;DHT22;66927;48.812;9.118;2023-03-01T13:25:27;36.10;28.30
12827;DHT22;66927;48.812;9.118;2023-03-01T13:30:58;34.30;28.50
12827;DHT22;66927;48.812;9.118;2023-03-01T13:35:54;34.40;28.90
12827;DHT22;66927;48.812;9.118;2023-03-01T13:38:47;34.50;28.70
12827;DHT22;66927;48.812;9.118;2023-03-01T13:41:16;34.70;28.80
12827;DHT22;66927;48.812;9.118;2023-03-01T13:43:46;34.80;28.40
12827;DHT22;66927;48.812;9.118;2023-03-01T13:46:24;34.30;28.70
12827;DHT22;66927;48.812;9.118;2023-03-01T13:48:55;34.20;28.80
12827;DHT22;66927;48.812;9.118;2023-03-01T13:51:26;34.80;28.50
12827;DHT22;66927;48.812;9.118;2023-03-01T13:53:54;33.90;28.90
12827;DHT22;66927;48.812;9.118;2023-03-01T13:56:33;33.80;29.00
12827;DHT22;66927;48.812;9.118;2023-03-01T13:59:13;33.10;29.20
12827;DHT22;66927;48.812;9.118;2023-03-01T14:01:38;32.90;29.90
12827;DHT22;66927;48.812;9.118;2023-03-01T14:04:26;33.20;29.30
12827;DHT22;66927;48.812;9.118;2023-03-01T14:07:12;33.00;29.40
12827;DHT22;66927;48.812;9.118;2023-03-01T14:09:44;32.20;29.80
12827;DHT22;66927;48.812;9.118;2023-03-01T14:14:48;31.90;30.00
12827;DHT22;66927;48.812;9.118;2023-03-01T14:20:12;32.00;29.90
12827;DHT22;66927;48.812;9.118;2023-03-01T14:22:41;32.10;29.80
12827;DHT22;66927;48.812;9.118;2023-03-01T14:25:19;32.80;29.60
12827;DHT22;66927;48.812;9.118;2023-03-01T14:27:55;31.70;30.00
12827;DHT22;66927;48.812;9.118;2023-03-01T14:30:24;31.20;30.00
12827;DHT22;66927;48.812;9.118;2023-03-01T14:32:59;31.10;30.20
12827;DHT22;66927;48.812;9.118;2023-03-01T14:35:34;31.30;30.00
12827;DHT22;66927;48.812;9.118;2023-03-01T14:38:00;30.30;30.90
12827;DHT22;66927;48.812;9.118;2023-03-01T14:40:30;30.00;31.10
12827;DHT22;66927;48.812;9.118;2023-03-01T14:42:59;29.80;31.10
12827;DHT22;66927;48.812;9.118;2023-03-01T14:45:29;30.10;30.90
12827;DHT22;66927;48.812;9.118;2023-03-01T14:47:59;29.10;31.70
12827;DHT22;66927;48.812;9.118;2023-03-01T14:50:28;29.00;31.70
12827;DHT22;66927;48.812;9.118;2023-03-01T14:52:58;29.60;31.20
12827;DHT22;66927;48.812;9.118;2023-03-01T14:55:34;29.20;31.30
12827;DHT22;66927;48.812;9.118;2023-03-01T14:58:09;29.50;31.10
12827;DHT22;66927;48.812;9.118;2023-03-01T15:00:36;29.30;31.30
12827;DHT22;66927;48.812;9.118;2023-03-01T15:03:07;29.50;31.00
12827;DHT22;66927;48.812;9.118;2023-03-01T15:05:39;28.20;31.70
12827;DHT22;66927;48.812;9.118;2023-03-01T15:08:06;26.10;32.80
12827;DHT22;66927;48.812;9.118;2023-03-01T15:10:36;23.60;35.50
12827;DHT22;66927;48.812;9.118;2023-03-01T15:13:22;21.30;38.20
12827;DHT22;66927;48.812;9.118;2023-03-01T15:15:50;19.50;40.40
12827;DHT22;66927;48.812;9.118;2023-03-01T15:18:22;18.30;42.20
12827;DHT22;66927;48.812;9.118;2023-03-01T15:20:51;17.10;43.90
12827;DHT22;66927;48.812;9.118;2023-03-01T15:23:25;15.90;46.00
12827;DHT22;66927;48.812;9.118;2023-03-01T15:25:53;15.20;47.30
12827;DHT22;66927;48.812;9.118;2023-03-01T15:28:42;14.70;48.40
12827;DHT22;66927;48.812;9.118;2023-03-01T15:31:24;14.10;49.50
12827;DHT22;66927;48.812;9.118;2023-03-01T15:34:23;13.20;51.60
12827;DHT22;66927;48.812;9.118;2023-03-01T15:36:51;12.70;52.30
12827;DHT22;66927;48.812;9.118;2023-03-01T15:41:55;11.80;54.20
12827;DHT22;66927;48.812;9.118;2023-03-01T15:44:29;11.50;54.80
12827;DHT22;66927;48.812;9.118;2023-03-01T15:46:55;11.10;55.40
12827;DHT22;66927;48.812;9.118;2023-03-01T15:49:41;10.90;56.10
12827;DHT22;66927;48.812;9.118;2023-03-01T15:52:17;10.50;57.00
12827;DHT22;66927;48.812;9.118;2023-03-01T15:54:44;10.20;58.00
12827;DHT22;66927;48.812;9.118;2023-03-01T15:57:14;10.10;58.30
12827;DHT22;66927;48.812;9.118;2023-03-01T15:59:41;10.10;58.70
12827;DHT22;66927;48.812;9.118;2023-03-01T16:02:11;10.00;58.70
12827;DHT22;66927;48.812;9.118;2023-03-01T16:04:41;9.80;59.30
12827;DHT22;66927;48.812;9.118;2023-03-01T16:07:08;9.60;59.90
12827;DHT22;66927;48.812;9.118;2023-03-01T16:09:35;9.40;61.00
12827;DHT22;66927;48.812;9.118;2023-03-01T16:12:01;9.30;61.20
12827;DHT22;66927;48.812;9.118;2023-03-01T16:14:28;9.20;61.30
12827;DHT22;66927;48.812;9.118;2023-03-01T16:16:54;9.20;62.00
12827;DHT22;66927;48.812;9.118;2023-03-01T16:19:20;9.20;62.10
12827;DHT22;66927;48.812;9.118;2023-03-01T16:21:46;9.00;62.90
12827;DHT22;66927;48.812;9.118;2023-03-01T16:24:12;8.80;63.10
12827;DHT22;66927;48.812;9.118;2023-03-01T16:26:38;8.80;64.30
12827;DHT22;66927;48.812;9.118;2023-03-01T16:29:04;8.70;63.50
12827;DHT22;66927;48.812;9.118;2023-03-01T16:31:30;8.60;64.30
12827;DHT22;66927;48.812;9.118;2023-03-01T16:33:57;8.50;64.60
12827;DHT22;66927;48.812;9.118;2023-03-01T16:36:25;8.30;65.40
12827;DHT22;66927;48.812;9.118;2023-03-01T16:38:55;8.20;65.60
12827;DHT22;66927;48.812;9.118;2023-03-01T16:41:23;8.10;65.90
12827;DHT22;66927;48.812;9.118;2023-03-01T16:43:52;8.10;66.10
12827;DHT22;66927;48.812;9.118;2023-03-01T16:46:24;7.80;66.80
12827;DHT22;66927;48.812;9.118;2023-03-01T16:48:50;7.70;67.80
12827;DHT22;66927;48.812;9.118;2023-03-01T16:51:16;7.60;68.50
12827;DHT22;66927;48.812;9.118;2023-03-01T16:53:42;7.50;69.30
12827;DHT22;66927;48.812;9.118;2023-03-01T16:56:10;7.40;69.70
12827;DHT22;66927;48.812;9.118;2023-03-01T16:58:37;7.30;69.90
12827;DHT22;66927;48.812;9.118;2023-03-01T17:01:09;7.20;71.00
12827;DHT22;66927;48.812;9.118;2023-03-01T17:03:36;6.90;72.20
12827;DHT22;66927;48.812;9.118;2023-03-01T17:06:04;6.80;72.00
12827;DHT22;66927;48.812;9.118;2023-03-01T17:08:31;6.70;73.20
12827;DHT22;66927;48.812;9.118;2023-03-01T17:11:02;6.60;73.60
12827;DHT22;66927;48.812;9.118;2023-03-01T17:13:28;6.50;74.00
12827;DHT22;66927;48.812;9.118;2023-03-01T17:15:54;6.40;74.10
12827;DHT22;66927;48.812;9.118;2023-03-01T17:18:20;6.20;75.50
12827;DHT22;66927;48.812;9.118;2023-03-01T17:20:47;6.20;76.00
12827;DHT22;66927;48.812;9.118;2023-03-01T17:23:12;6.10;75.80
12827;DHT22;66927;48.812;9.118;2023-03-01T17:25:43;6.10;76.50
12827;DHT22;66927;48.812;9.118;2023-03-01T17:28:10;6.00;76.70
12827;DHT22;66927;48.812;9.118;2023-03-01T17:30:36;5.90;78.20
12827;DHT22;66927;48.812;9.118;2023-03-01T17:33:02;5.90;77.60
12827;DHT22;66927;48.812;9.118;2023-03-01T17:35:28;5.80;78.20
12827;DHT22;66927;48.812;9.118;2023-03-01T17:37:55;5.80;78.30
12827;DHT22;66927;48.812;9.118;2023-03-01T17:40:21;5.70;78.90
12827;DHT22;66927;48.812;9.118;2023-03-01T17:42:46;5.60;79.40
12827;DHT22;66927;48.812;9.118;2023-03-01T17:45:12;5.50;80.40
12827;DHT22;66927;48.812;9.118;2023-03-01T17:47:38;5.40;81.20